sensor_id;sensor_type;location;lat;lon;timestamp;P1;durP1;ratioP1;P2;durP2;ratioP2
17886;SDS011;9069;52.044;7.472;2023-12-04T00:01:14;15.73;;;8.03;;
17886;SDS011;9069;52.044;7.472;2023-12-04T00:03:41;18.27;;;8.97;;
17886;SDS011;9069;52.044;7.472;2023-12-04T00:06:12;17.23;;;8.53;;
17886;SDS011;9069;52.044;7.472;2023-12-04T00:08:39;18.93;;;8.70;;
17886;SDS011;9069;52.044;7.472;2023-12-04T00:11:06;20.60;;;9.37;;
17886;SDS011;9069;52.044;7.472;2023-12-04T00:13:34;18.90;;;8.53;;
17886;SDS011;9069;52.044;7.472;2023-12-04T00:16:05;14.47;;;8.00;;
17886;SDS011;9069;52.044;7.472;2023-12-04T00:18:32;17.60;;;8.00;;
17886;SDS011;9069;52.044;7.472;2023-12-04T00:20:59;18.73;;;8.97;;
17886;SDS011;9069;52.044;7.472;2023-12-04T00:23:28;19.93;;;8.87;;
17886;SDS011;9069;52.044;7.472;2023-12-04T00:25:55;18.57;;;8.67;;
17886;SDS011;9069;52.044;7.472;2023-12-04T00:28:22;18.43;;;8.37;;
17886;SDS011;9069;52.044;7.472;2023-12-04T00:30:49;17.53;;;7.93;;
17886;SDS011;9069;52.044;7.472;2023-12-04T00:33:16;16.17;;;8.03;;
17886;SDS011;9069;52.044;7.472;2023-12-04T00:35:43;18.13;;;8.13;;
17886;SDS011;9069;52.044;7.472;2023-12-04T00:38:10;19.33;;;8.90;;
17886;SDS011;9069;52.044;7.472;2023-12-04T00:40:37;18.53;;;8.90;;
17886;SDS011;9069;52.044;7.472;2023-12-04T00:43:04;15.43;;;7.80;;
17886;SDS011;9069;52.044;7.472;2023-12-04T00:45:31;14.97;;;7.10;;
17886;SDS011;9069;52.044;7.472;2023-12-04T00:47:58;19.83;;;8.83;;
17886;SDS011;9069;52.044;7.472;2023-12-04T00:50:27;16.53;;;8.07;;
17886;SDS011;9069;52.044;7.472;2023-12-04T00:52:54;19.23;;;9.23;;
17886;SDS011;9069;52.044;7.472;2023-12-04T00:55:20;17.07;;;8.17;;
17886;SDS011;9069;52.044;7.472;2023-12-04T00:57:47;17.53;;;7.77;;
17886;SDS011;9069;52.044;7.472;2023-12-04T01:00:14;15.87;;;8.07;;
17886;SDS011;9069;52.044;7.472;2023-12-04T01:02:41;17.63;;;8.13;;
17886;SDS011;9069;52.044;7.472;2023-12-04T01:05:09;17.07;;;8.20;;
17886;SDS011;9069;52.044;7.472;2023-12-04T01:07:36;17.07;;;8.03;;
17886;SDS011;9069;52.044;7.472;2023-12-04T01:10:03;14.60;;;7.77;;
17886;SDS011;9069;52.044;7.472;2023-12-04T01:12:30;16.07;;;7.53;;
17886;SDS011;9069;52.044;7.472;2023-12-04T01:14:57;16.10;;;7.77;;
17886;SDS011;9069;52.044;7.472;2023-12-04T01:17:24;14.43;;;7.70;;
17886;SDS011;9069;52.044;7.472;2023-12-04T01:19:51;18.00;;;8.03;;
17886;SDS011;9069;52.044;7.472;2023-12-04T01:22:18;16.37;;;8.40;;
17886;SDS011;9069;52.044;7.472;2023-12-04T01:24:45;15.07;;;7.47;;
17886;SDS011;9069;52.044;7.472;2023-12-04T01:27:11;15.00;;;7.90;;
17886;SDS011;9069;52.044;7.472;2023-12-04T01:29:39;16.67;;;7.07;;
17886;SDS011;9069;52.044;7.472;2023-12-04T01:32:05;16.67;;;7.43;;
17886;SDS011;9069;52.044;7.472;2023-12-04T01:34:32;14.20;;;7.13;;
17886;SDS011;9069;52.044;7.472;2023-12-04T01:36:59;15.10;;;7.87;;
17886;SDS011;9069;52.044;7.472;2023-12-04T01:39:26;15.73;;;8.10;;
17886;SDS011;9069;52.044;7.472;2023-12-04T01:41:53;12.63;;;6.40;;
17886;SDS011;9069;52.044;7.472;2023-12-04T01:44:20;16.17;;;7.53;;
17886;SDS011;9069;52.044;7.472;2023-12-04T01:46:47;16.63;;;7.97;;
17886;SDS011;9069;52.044;7.472;2023-12-04T01:49:15;14.30;;;7.60;;
17886;SDS011;9069;52.044;7.472;2023-12-04T01:51:42;19.60;;;8.33;;
17886;SDS011;9069;52.044;7.472;2023-12-04T01:54:10;15.37;;;7.53;;
17886;SDS011;9069;52.044;7.472;2023-12-04T01:56:37;16.53;;;7.10;;
17886;SDS011;9069;52.044;7.472;2023-12-04T01:59:05;17.63;;;7.47;;
17886;SDS011;9069;52.044;7.472;2023-12-04T02:01:32;16.63;;;7.40;;
17886;SDS011;9069;52.044;7.472;2023-12-04T02:04:00;13.10;;;7.17;;
17886;SDS011;9069;52.044;7.472;2023-12-04T02:06:29;17.67;;;7.80;;
17886;SDS011;9069;52.044;7.472;2023-12-04T02:08:56;16.50;;;7.80;;
17886;SDS011;9069;52.044;7.472;2023-12-04T02:11:23;16.90;;;7.97;;
17886;SDS011;9069;52.044;7.472;2023-12-04T02:13:50;13.67;;;6.40;;
17886;SDS011;9069;52.044;7.472;2023-12-04T02:16:17;14.40;;;8.00;;
17886;SDS011;9069;52.044;7.472;2023-12-04T02:18:46;13.63;;;6.73;;
17886;SDS011;9069;52.044;7.472;2023-12-04T02:21:13;13.67;;;6.93;;
17886;SDS011;9069;52.044;7.472;2023-12-04T02:23:39;16.73;;;8.47;;
17886;SDS011;9069;52.044;7.472;2023-12-04T02:26:10;16.37;;;7.63;;
17886;SDS011;9069;52.044;7.472;2023-12-04T02:28:42;13.00;;;6.70;;
17886;SDS011;9069;52.044;7.472;2023-12-04T02:31:13;17.20;;;7.63;;
17886;SDS011;9069;52.044;7.472;2023-12-04T02:33:42;15.17;;;7.13;;
17886;SDS011;9069;52.044;7.472;2023-12-04T02:36:11;15.10;;;6.60;;
17886;SDS011;9069;52.044;7.472;2023-12-04T02:38:39;13.87;;;6.60;;
17886;SDS011;9069;52.044;7.472;2023-12-04T02:41:07;13.07;;;7.17;;
17886;SDS011;9069;52.044;7.472;2023-12-04T02:43:34;17.60;;;8.13;;
17886;SDS011;9069;52.044;7.472;2023-12-04T02:46:02;19.10;;;7.77;;
17886;SDS011;9069;52.044;7.472;2023-12-04T02:48:29;14.10;;;6.67;;
17886;SDS011;9069;52.044;7.472;2023-12-04T02:50:56;16.30;;;7.80;;
17886;SDS011;9069;52.044;7.472;2023-12-04T02:53:23;15.17;;;7.47;;
17886;SDS011;9069;52.044;7.472;2023-12-04T02:55:51;17.33;;;7.97;;
17886;SDS011;9069;52.044;7.472;2023-12-04T02:58:17;15.73;;;7.70;;
17886;SDS011;9069;52.044;7.472;2023-12-04T03:00:44;16.00;;;7.47;;
17886;SDS011;9069;52.044;7.472;2023-12-04T03:03:11;14.57;;;6.97;;
17886;SDS011;9069;52.044;7.472;2023-12-04T03:05:38;14.97;;;7.10;;
17886;SDS011;9069;52.044;7.472;2023-12-04T03:08:05;13.37;;;6.90;;
17886;SDS011;9069;52.044;7.472;2023-12-04T03:10:31;19.13;;;7.33;;
17886;SDS011;9069;52.044;7.472;2023-12-04T03:12:59;13.33;;;6.57;;
17886;SDS011;9069;52.044;7.472;2023-12-04T03:15:26;16.63;;;8.03;;
17886;SDS011;9069;52.044;7.472;2023-12-04T03:17:58;19.67;;;7.80;;
17886;SDS011;9069;52.044;7.472;2023-12-04T03:20:28;16.70;;;7.17;;
17886;SDS011;9069;52.044;7.472;2023-12-04T03:22:55;14.67;;;6.93;;
17886;SDS011;9069;52.044;7.472;2023-12-04T03:25:22;18.50;;;7.03;;
17886;SDS011;9069;52.044;7.472;2023-12-04T03:27:49;14.23;;;7.37;;
17886;SDS011;9069;52.044;7.472;2023-12-04T03:30:16;14.77;;;7.13;;
17886;SDS011;9069;52.044;7.472;2023-12-04T03:32:43;16.13;;;7.47;;
17886;SDS011;9069;52.044;7.472;2023-12-04T03:35:10;14.33;;;7.50;;
17886;SDS011;9069;52.044;7.472;2023-12-04T03:37:36;14.17;;;6.77;;
17886;SDS011;9069;52.044;7.472;2023-12-04T03:40:03;14.23;;;6.83;;
17886;SDS011;9069;52.044;7.472;2023-12-04T03:42:31;13.47;;;6.80;;
17886;SDS011;9069;52.044;7.472;2023-12-04T03:44:58;14.60;;;6.83;;
17886;SDS011;9069;52.044;7.472;2023-12-04T03:47:25;15.97;;;7.50;;
17886;SDS011;9069;52.044;7.472;2023-12-04T03:49:53;13.53;;;6.80;;
17886;SDS011;9069;52.044;7.472;2023-12-04T03:52:19;15.20;;;7.93;;
17886;SDS011;9069;52.044;7.472;2023-12-04T03:54:46;13.20;;;7.90;;
17886;SDS011;9069;52.044;7.472;2023-12-04T03:57:13;14.73;;;6.50;;
17886;SDS011;9069;52.044;7.472;2023-12-04T03:59:40;14.47;;;7.13;;
17886;SDS011;9069;52.044;7.472;2023-12-04T04:02:07;13.23;;;6.70;;
17886;SDS011;9069;52.044;7.472;2023-12-04T04:04:34;15.90;;;7.20;;
17886;SDS011;9069;52.044;7.472;2023-12-04T04:07:01;16.13;;;7.03;;
17886;SDS011;9069;52.044;7.472;2023-12-04T04:09:28;13.03;;;7.17;;
17886;SDS011;9069;52.044;7.472;2023-12-04T04:11:55;14.67;;;6.60;;
17886;SDS011;9069;52.044;7.472;2023-12-04T04:14:22;13.10;;;7.30;;
17886;SDS011;9069;52.044;7.472;2023-12-04T04:16:50;12.13;;;6.77;;
17886;SDS011;9069;52.044;7.472;2023-12-04T04:19:17;15.53;;;7.00;;
17886;SDS011;9069;52.044;7.472;2023-12-04T04:21:44;13.93;;;6.60;;
17886;SDS011;9069;52.044;7.472;2023-12-04T04:24:11;12.40;;;6.10;;
17886;SDS011;9069;52.044;7.472;2023-12-04T04:26:38;13.93;;;6.67;;
17886;SDS011;9069;52.044;7.472;2023-12-04T04:29:04;11.27;;;6.27;;
17886;SDS011;9069;52.044;7.472;2023-12-04T04:31:31;11.63;;;6.20;;
17886;SDS011;9069;52.044;7.472;2023-12-04T04:33:58;11.30;;;6.27;;
17886;SDS011;9069;52.044;7.472;2023-12-04T04:36:26;12.63;;;6.17;;
17886;SDS011;9069;52.044;7.472;2023-12-04T04:38:53;12.43;;;6.60;;
17886;SDS011;9069;52.044;7.472;2023-12-04T04:41:20;15.17;;;6.30;;
17886;SDS011;9069;52.044;7.472;2023-12-04T04:43:47;12.00;;;6.20;;
17886;SDS011;9069;52.044;7.472;2023-12-04T04:46:14;12.47;;;6.50;;
17886;SDS011;9069;52.044;7.472;2023-12-04T04:48:40;12.80;;;6.33;;
17886;SDS011;9069;52.044;7.472;2023-12-04T04:51:07;12.40;;;6.20;;
17886;SDS011;9069;52.044;7.472;2023-12-04T04:53:34;11.80;;;6.27;;
17886;SDS011;9069;52.044;7.472;2023-12-04T04:56:04;12.53;;;6.07;;
17886;SDS011;9069;52.044;7.472;2023-12-04T04:58:31;13.03;;;5.87;;
17886;SDS011;9069;52.044;7.472;2023-12-04T05:00:58;14.10;;;6.80;;
17886;SDS011;9069;52.044;7.472;2023-12-04T05:03:25;13.73;;;6.57;;
17886;SDS011;9069;52.044;7.472;2023-12-04T05:05:52;9.67;;;5.80;;
17886;SDS011;9069;52.044;7.472;2023-12-04T05:08:19;11.67;;;6.00;;
17886;SDS011;9069;52.044;7.472;2023-12-04T05:10:46;12.00;;;5.60;;
17886;SDS011;9069;52.044;7.472;2023-12-04T05:13:13;10.70;;;5.57;;
17886;SDS011;9069;52.044;7.472;2023-12-04T05:15:40;9.87;;;5.40;;
17886;SDS011;9069;52.044;7.472;2023-12-04T05:18:07;14.40;;;6.90;;
17886;SDS011;9069;52.044;7.472;2023-12-04T05:20:34;13.73;;;5.80;;
17886;SDS011;9069;52.044;7.472;2023-12-04T05:23:01;13.30;;;6.10;;
17886;SDS011;9069;52.044;7.472;2023-12-04T05:25:28;11.47;;;5.27;;
17886;SDS011;9069;52.044;7.472;2023-12-04T05:28:03;11.13;;;5.70;;
17886;SDS011;9069;52.044;7.472;2023-12-04T05:30:30;10.77;;;5.30;;
17886;SDS011;9069;52.044;7.472;2023-12-04T05:32:57;11.07;;;6.77;;
17886;SDS011;9069;52.044;7.472;2023-12-04T05:35:24;14.53;;;5.90;;
17886;SDS011;9069;52.044;7.472;2023-12-04T05:37:51;12.83;;;6.77;;
17886;SDS011;9069;52.044;7.472;2023-12-04T05:40:18;11.00;;;6.27;;
17886;SDS011;9069;52.044;7.472;2023-12-04T05:42:45;13.47;;;5.83;;
17886;SDS011;9069;52.044;7.472;2023-12-04T05:45:12;11.57;;;5.47;;
17886;SDS011;9069;52.044;7.472;2023-12-04T05:47:38;12.50;;;6.10;;
17886;SDS011;9069;52.044;7.472;2023-12-04T05:50:05;10.83;;;5.57;;
17886;SDS011;9069;52.044;7.472;2023-12-04T05:52:33;10.30;;;5.30;;
17886;SDS011;9069;52.044;7.472;2023-12-04T05:55:01;9.93;;;4.93;;
17886;SDS011;9069;52.044;7.472;2023-12-04T05:57:29;9.53;;;5.43;;
17886;SDS011;9069;52.044;7.472;2023-12-04T05:59:56;9.30;;;4.73;;
17886;SDS011;9069;52.044;7.472;2023-12-04T06:02:22;10.33;;;4.93;;
17886;SDS011;9069;52.044;7.472;2023-12-04T06:04:49;9.03;;;4.97;;
17886;SDS011;9069;52.044;7.472;2023-12-04T06:07:16;10.97;;;5.27;;
17886;SDS011;9069;52.044;7.472;2023-12-04T06:09:43;11.10;;;5.73;;
17886;SDS011;9069;52.044;7.472;2023-12-04T06:12:10;9.70;;;5.07;;
17886;SDS011;9069;52.044;7.472;2023-12-04T06:14:37;10.00;;;5.23;;
17886;SDS011;9069;52.044;7.472;2023-12-04T06:17:03;12.07;;;5.87;;
17886;SDS011;9069;52.044;7.472;2023-12-04T06:19:32;9.02;;;5.40;;
17886;SDS011;9069;52.044;7.472;2023-12-04T06:21:59;8.37;;;4.70;;
17886;SDS011;9069;52.044;7.472;2023-12-04T06:24:27;9.20;;;4.90;;
17886;SDS011;9069;52.044;7.472;2023-12-04T06:26:54;9.93;;;4.90;;
17886;SDS011;9069;52.044;7.472;2023-12-04T06:29:21;8.90;;;4.87;;
17886;SDS011;9069;52.044;7.472;2023-12-04T06:31:48;12.80;;;5.18;;
17886;SDS011;9069;52.044;7.472;2023-12-04T06:34:15;13.18;;;5.50;;
17886;SDS011;9069;52.044;7.472;2023-12-04T06:36:42;10.30;;;4.40;;
17886;SDS011;9069;52.044;7.472;2023-12-04T06:39:10;13.00;;;5.37;;
17886;SDS011;9069;52.044;7.472;2023-12-04T06:41:39;11.30;;;5.43;;
17886;SDS011;9069;52.044;7.472;2023-12-04T06:44:06;8.03;;;5.13;;
17886;SDS011;9069;52.044;7.472;2023-12-04T06:46:34;8.47;;;4.97;;
17886;SDS011;9069;52.044;7.472;2023-12-04T06:49:04;9.37;;;5.10;;
17886;SDS011;9069;52.044;7.472;2023-12-04T06:51:34;11.77;;;4.83;;
17886;SDS011;9069;52.044;7.472;2023-12-04T06:54:01;9.33;;;4.87;;
17886;SDS011;9069;52.044;7.472;2023-12-04T06:56:28;9.47;;;5.20;;
17886;SDS011;9069;52.044;7.472;2023-12-04T06:58:55;9.80;;;5.43;;
17886;SDS011;9069;52.044;7.472;2023-12-04T07:01:22;8.60;;;4.87;;
17886;SDS011;9069;52.044;7.472;2023-12-04T07:03:49;12.33;;;5.77;;
17886;SDS011;9069;52.044;7.472;2023-12-04T07:06:16;9.33;;;5.20;;
17886;SDS011;9069;52.044;7.472;2023-12-04T07:08:43;9.50;;;5.40;;
17886;SDS011;9069;52.044;7.472;2023-12-04T07:11:10;16.43;;;8.73;;
17886;SDS011;9069;52.044;7.472;2023-12-04T07:13:40;11.93;;;7.60;;
17886;SDS011;9069;52.044;7.472;2023-12-04T07:16:08;8.87;;;5.17;;
17886;SDS011;9069;52.044;7.472;2023-12-04T07:18:35;11.73;;;5.47;;
17886;SDS011;9069;52.044;7.472;2023-12-04T07:21:02;9.80;;;5.07;;
17886;SDS011;9069;52.044;7.472;2023-12-04T07:23:30;12.43;;;4.93;;
17886;SDS011;9069;52.044;7.472;2023-12-04T07:25:57;9.37;;;4.97;;
17886;SDS011;9069;52.044;7.472;2023-12-04T07:28:23;12.60;;;5.63;;
17886;SDS011;9069;52.044;7.472;2023-12-04T07:30:51;13.47;;;7.07;;
17886;SDS011;9069;52.044;7.472;2023-12-04T07:33:17;15.03;;;8.30;;
17886;SDS011;9069;52.044;7.472;2023-12-04T07:35:44;16.23;;;9.47;;
17886;SDS011;9069;52.044;7.472;2023-12-04T07:38:11;22.87;;;14.30;;
17886;SDS011;9069;52.044;7.472;2023-12-04T07:40:38;16.07;;;10.03;;
17886;SDS011;9069;52.044;7.472;2023-12-04T07:43:05;12.70;;;8.20;;
17886;SDS011;9069;52.044;7.472;2023-12-04T07:45:32;11.80;;;6.43;;
17886;SDS011;9069;52.044;7.472;2023-12-04T07:48:00;11.63;;;6.47;;
17886;SDS011;9069;52.044;7.472;2023-12-04T07:50:28;12.90;;;6.43;;
17886;SDS011;9069;52.044;7.472;2023-12-04T07:52:54;10.60;;;6.27;;
17886;SDS011;9069;52.044;7.472;2023-12-04T07:55:21;11.10;;;5.50;;
17886;SDS011;9069;52.044;7.472;2023-12-04T07:57:48;9.67;;;5.20;;
17886;SDS011;9069;52.044;7.472;2023-12-04T08:00:17;9.73;;;5.47;;
17886;SDS011;9069;52.044;7.472;2023-12-04T08:02:49;10.30;;;4.70;;
17886;SDS011;9069;52.044;7.472;2023-12-04T08:05:15;8.80;;;4.77;;
17886;SDS011;9069;52.044;7.472;2023-12-04T08:07:43;7.73;;;4.40;;
17886;SDS011;9069;52.044;7.472;2023-12-04T08:10:11;11.27;;;5.47;;
17886;SDS011;9069;52.044;7.472;2023-12-04T08:12:38;9.07;;;4.60;;
17886;SDS011;9069;52.044;7.472;2023-12-04T08:15:06;7.87;;;4.60;;
17886;SDS011;9069;52.044;7.472;2023-12-04T08:17:33;8.23;;;4.50;;
17886;SDS011;9069;52.044;7.472;2023-12-04T08:20:00;9.27;;;4.63;;
17886;SDS011;9069;52.044;7.472;2023-12-04T08:22:27;10.63;;;4.80;;
17886;SDS011;9069;52.044;7.472;2023-12-04T08:24:54;10.47;;;4.93;;
17886;SDS011;9069;52.044;7.472;2023-12-04T08:27:21;9.60;;;4.90;;
17886;SDS011;9069;52.044;7.472;2023-12-04T08:29:47;9.90;;;4.83;;
17886;SDS011;9069;52.044;7.472;2023-12-04T08:32:14;8.93;;;5.23;;
17886;SDS011;9069;52.044;7.472;2023-12-04T08:34:41;11.57;;;5.57;;
17886;SDS011;9069;52.044;7.472;2023-12-04T08:37:08;10.57;;;5.07;;
17886;SDS011;9069;52.044;7.472;2023-12-04T08:39:35;11.27;;;5.30;;
17886;SDS011;9069;52.044;7.472;2023-12-04T08:42:02;10.30;;;5.50;;
17886;SDS011;9069;52.044;7.472;2023-12-04T08:44:34;9.37;;;5.27;;
17886;SDS011;9069;52.044;7.472;2023-12-04T08:47:01;10.93;;;5.90;;
17886;SDS011;9069;52.044;7.472;2023-12-04T08:49:28;13.30;;;5.30;;
17886;SDS011;9069;52.044;7.472;2023-12-04T08:52:08;13.25;;;6.63;;
17886;SDS011;9069;52.044;7.472;2023-12-04T08:54:35;10.73;;;5.70;;
17886;SDS011;9069;52.044;7.472;2023-12-04T08:57:05;9.23;;;5.23;;
17886;SDS011;9069;52.044;7.472;2023-12-04T08:59:32;12.77;;;5.47;;
17886;SDS011;9069;52.044;7.472;2023-12-04T09:01:59;10.97;;;6.00;;
17886;SDS011;9069;52.044;7.472;2023-12-04T09:04:30;11.33;;;5.83;;
17886;SDS011;9069;52.044;7.472;2023-12-04T09:06:58;10.20;;;5.60;;
17886;SDS011;9069;52.044;7.472;2023-12-04T09:09:28;12.77;;;5.80;;
17886;SDS011;9069;52.044;7.472;2023-12-04T09:11:56;9.83;;;5.70;;
17886;SDS011;9069;52.044;7.472;2023-12-04T09:14:23;10.10;;;5.30;;
17886;SDS011;9069;52.044;7.472;2023-12-04T09:16:50;12.47;;;6.67;;
17886;SDS011;9069;52.044;7.472;2023-12-04T09:19:16;17.10;;;8.00;;
17886;SDS011;9069;52.044;7.472;2023-12-04T09:21:43;27.33;;;12.17;;
17886;SDS011;9069;52.044;7.472;2023-12-04T09:24:10;11.67;;;6.67;;
17886;SDS011;9069;52.044;7.472;2023-12-04T09:26:37;11.90;;;6.03;;
17886;SDS011;9069;52.044;7.472;2023-12-04T09:29:04;19.90;;;6.23;;
17886;SDS011;9069;52.044;7.472;2023-12-04T09:31:31;12.13;;;6.40;;
17886;SDS011;9069;52.044;7.472;2023-12-04T09:33:58;14.83;;;5.93;;
17886;SDS011;9069;52.044;7.472;2023-12-04T09:36:25;11.43;;;5.03;;
17886;SDS011;9069;52.044;7.472;2023-12-04T09:38:51;10.53;;;5.53;;
17886;SDS011;9069;52.044;7.472;2023-12-04T09:41:18;12.03;;;6.10;;
17886;SDS011;9069;52.044;7.472;2023-12-04T09:43:47;9.47;;;5.67;;
17886;SDS011;9069;52.044;7.472;2023-12-04T09:46:14;14.75;;;7.30;;
17886;SDS011;9069;52.044;7.472;2023-12-04T09:48:43;24.90;;;10.48;;
17886;SDS011;9069;52.044;7.472;2023-12-04T09:51:11;13.27;;;7.50;;
17886;SDS011;9069;52.044;7.472;2023-12-04T09:53:39;17.27;;;7.77;;
17886;SDS011;9069;52.044;7.472;2023-12-04T09:56:07;16.60;;;10.18;;
17886;SDS011;9069;52.044;7.472;2023-12-04T09:58:35;19.03;;;9.00;;
17886;SDS011;9069;52.044;7.472;2023-12-04T10:01:06;10.50;;;7.57;;
17886;SDS011;9069;52.044;7.472;2023-12-04T10:03:34;14.80;;;8.83;;
17886;SDS011;9069;52.044;7.472;2023-12-04T10:06:03;17.70;;;8.37;;
17886;SDS011;9069;52.044;7.472;2023-12-04T10:08:32;30.83;;;14.33;;
17886;SDS011;9069;52.044;7.472;2023-12-04T10:10:58;25.93;;;13.07;;
17886;SDS011;9069;52.044;7.472;2023-12-04T10:13:30;15.27;;;8.57;;
17886;SDS011;9069;52.044;7.472;2023-12-04T10:16:33;12.97;;;7.53;;
17886;SDS011;9069;52.044;7.472;2023-12-04T10:19:23;17.70;;;8.07;;
17886;SDS011;9069;52.044;7.472;2023-12-04T10:21:57;11.37;;;5.67;;
17886;SDS011;9069;52.044;7.472;2023-12-04T10:24:36;9.37;;;5.67;;
17886;SDS011;9069;52.044;7.472;2023-12-04T10:27:06;8.33;;;5.10;;
17886;SDS011;9069;52.044;7.472;2023-12-04T10:32:13;13.43;;;6.33;;
17886;SDS011;9069;52.044;7.472;2023-12-04T10:34:44;10.77;;;5.40;;
17886;SDS011;9069;52.044;7.472;2023-12-04T10:37:11;9.70;;;5.53;;
17886;SDS011;9069;52.044;7.472;2023-12-04T10:39:48;9.83;;;5.73;;
17886;SDS011;9069;52.044;7.472;2023-12-04T10:42:25;10.07;;;5.80;;
17886;SDS011;9069;52.044;7.472;2023-12-04T10:44:56;9.23;;;5.20;;
17886;SDS011;9069;52.044;7.472;2023-12-04T10:47:25;10.30;;;4.97;;
17886;SDS011;9069;52.044;7.472;2023-12-04T10:49:53;11.73;;;5.20;;
17886;SDS011;9069;52.044;7.472;2023-12-04T10:52:21;8.47;;;5.17;;
17886;SDS011;9069;52.044;7.472;2023-12-04T10:54:48;8.93;;;4.90;;
17886;SDS011;9069;52.044;7.472;2023-12-04T10:57:24;9.63;;;5.70;;
17886;SDS011;9069;52.044;7.472;2023-12-04T10:59:58;10.63;;;5.43;;
17886;SDS011;9069;52.044;7.472;2023-12-04T11:02:33;8.00;;;4.40;;
17886;SDS011;9069;52.044;7.472;2023-12-04T11:05:12;10.43;;;5.50;;
17886;SDS011;9069;52.044;7.472;2023-12-04T11:07:44;11.10;;;5.23;;
17886;SDS011;9069;52.044;7.472;2023-12-04T11:10:37;9.50;;;5.37;;
17886;SDS011;9069;52.044;7.472;2023-12-04T11:13:21;8.73;;;5.45;;
17886;SDS011;9069;52.044;7.472;2023-12-04T11:15:53;9.68;;;5.13;;
17886;SDS011;9069;52.044;7.472;2023-12-04T11:18:31;6.93;;;4.50;;
17886;SDS011;9069;52.044;7.472;2023-12-04T11:21:04;8.10;;;4.67;;
17886;SDS011;9069;52.044;7.472;2023-12-04T11:23:37;8.47;;;4.23;;
17886;SDS011;9069;52.044;7.472;2023-12-04T11:26:05;6.70;;;4.10;;
17886;SDS011;9069;52.044;7.472;2023-12-04T11:28:33;9.13;;;4.73;;
17886;SDS011;9069;52.044;7.472;2023-12-04T11:31:04;8.60;;;4.17;;
17886;SDS011;9069;52.044;7.472;2023-12-04T11:33:38;8.73;;;4.63;;
17886;SDS011;9069;52.044;7.472;2023-12-04T11:36:06;7.90;;;4.20;;
17886;SDS011;9069;52.044;7.472;2023-12-04T11:38:45;8.03;;;4.60;;
17886;SDS011;9069;52.044;7.472;2023-12-04T11:41:16;9.20;;;4.60;;
17886;SDS011;9069;52.044;7.472;2023-12-04T11:43:52;9.25;;;4.50;;
17886;SDS011;9069;52.044;7.472;2023-12-04T11:46:23;10.95;;;4.80;;
17886;SDS011;9069;52.044;7.472;2023-12-04T11:48:55;7.30;;;4.60;;
17886;SDS011;9069;52.044;7.472;2023-12-04T11:54:09;9.30;;;4.63;;
17886;SDS011;9069;52.044;7.472;2023-12-04T11:56:40;6.07;;;3.92;;
17886;SDS011;9069;52.044;7.472;2023-12-04T11:59:22;7.47;;;4.00;;
17886;SDS011;9069;52.044;7.472;2023-12-04T12:01:55;7.07;;;4.20;;
17886;SDS011;9069;52.044;7.472;2023-12-04T12:04:24;6.07;;;3.75;;
17886;SDS011;9069;52.044;7.472;2023-12-04T12:06:54;8.63;;;4.20;;
17886;SDS011;9069;52.044;7.472;2023-12-04T12:09:21;8.13;;;4.57;;
17886;SDS011;9069;52.044;7.472;2023-12-04T12:11:49;7.40;;;4.45;;
17886;SDS011;9069;52.044;7.472;2023-12-04T12:14:19;7.13;;;4.38;;
17886;SDS011;9069;52.044;7.472;2023-12-04T12:16:47;7.85;;;4.65;;
17886;SDS011;9069;52.044;7.472;2023-12-04T12:19:14;8.30;;;4.25;;
17886;SDS011;9069;52.044;7.472;2023-12-04T12:21:41;9.20;;;4.70;;
17886;SDS011;9069;52.044;7.472;2023-12-04T12:24:10;9.70;;;4.43;;
17886;SDS011;9069;52.044;7.472;2023-12-04T12:26:39;8.02;;;4.32;;
17886;SDS011;9069;52.044;7.472;2023-12-04T12:29:06;6.30;;;3.60;;
17886;SDS011;9069;52.044;7.472;2023-12-04T12:31:35;9.88;;;3.92;;
17886;SDS011;9069;52.044;7.472;2023-12-04T12:34:02;12.57;;;7.18;;
17886;SDS011;9069;52.044;7.472;2023-12-04T12:36:33;10.70;;;6.37;;
17886;SDS011;9069;52.044;7.472;2023-12-04T12:39:02;12.07;;;6.97;;
17886;SDS011;9069;52.044;7.472;2023-12-04T12:41:34;8.73;;;4.53;;
17886;SDS011;9069;52.044;7.472;2023-12-04T12:44:01;18.03;;;9.37;;
17886;SDS011;9069;52.044;7.472;2023-12-04T12:46:30;10.43;;;6.50;;
17886;SDS011;9069;52.044;7.472;2023-12-04T12:48:56;7.47;;;4.97;;
17886;SDS011;9069;52.044;7.472;2023-12-04T12:51:25;7.15;;;4.13;;
17886;SDS011;9069;52.044;7.472;2023-12-04T12:53:52;6.38;;;3.92;;
17886;SDS011;9069;52.044;7.472;2023-12-04T12:56:19;7.22;;;3.92;;
17886;SDS011;9069;52.044;7.472;2023-12-04T12:58:47;6.35;;;3.80;;
17886;SDS011;9069;52.044;7.472;2023-12-04T13:01:14;8.40;;;4.53;;
17886;SDS011;9069;52.044;7.472;2023-12-04T13:03:44;7.18;;;4.28;;
17886;SDS011;9069;52.044;7.472;2023-12-04T13:06:13;8.15;;;4.40;;
17886;SDS011;9069;52.044;7.472;2023-12-04T13:08:40;6.93;;;4.25;;
17886;SDS011;9069;52.044;7.472;2023-12-04T13:11:07;8.35;;;4.68;;
17886;SDS011;9069;52.044;7.472;2023-12-04T13:13:34;9.35;;;4.22;;
17886;SDS011;9069;52.044;7.472;2023-12-04T13:16:01;7.68;;;4.63;;
17886;SDS011;9069;52.044;7.472;2023-12-04T13:18:30;8.63;;;4.83;;
17886;SDS011;9069;52.044;7.472;2023-12-04T13:21:01;8.38;;;3.95;;
17886;SDS011;9069;52.044;7.472;2023-12-04T13:23:31;10.27;;;4.75;;
17886;SDS011;9069;52.044;7.472;2023-12-04T13:25:58;6.30;;;4.07;;
17886;SDS011;9069;52.044;7.472;2023-12-04T13:28:28;8.30;;;4.07;;
17886;SDS011;9069;52.044;7.472;2023-12-04T13:31:05;7.85;;;4.50;;
17886;SDS011;9069;52.044;7.472;2023-12-04T13:33:32;5.82;;;3.63;;
17886;SDS011;9069;52.044;7.472;2023-12-04T13:35:59;7.43;;;4.40;;
17886;SDS011;9069;52.044;7.472;2023-12-04T13:38:31;5.88;;;4.00;;
17886;SDS011;9069;52.044;7.472;2023-12-04T13:41:04;7.88;;;4.68;;
17886;SDS011;9069;52.044;7.472;2023-12-04T13:43:50;8.38;;;4.03;;
17886;SDS011;9069;52.044;7.472;2023-12-04T13:46:17;12.38;;;4.82;;
17886;SDS011;9069;52.044;7.472;2023-12-04T13:48:44;8.48;;;4.72;;
17886;SDS011;9069;52.044;7.472;2023-12-04T13:51:11;12.80;;;4.20;;
17886;SDS011;9069;52.044;7.472;2023-12-04T13:53:39;8.57;;;4.40;;
17886;SDS011;9069;52.044;7.472;2023-12-04T13:56:16;8.55;;;4.38;;
17886;SDS011;9069;52.044;7.472;2023-12-04T13:59:01;8.23;;;4.68;;
17886;SDS011;9069;52.044;7.472;2023-12-04T14:01:30;8.55;;;4.28;;
17886;SDS011;9069;52.044;7.472;2023-12-04T14:03:57;6.95;;;4.32;;
17886;SDS011;9069;52.044;7.472;2023-12-04T14:06:28;9.30;;;4.65;;
17886;SDS011;9069;52.044;7.472;2023-12-04T14:08:56;8.40;;;4.60;;
17886;SDS011;9069;52.044;7.472;2023-12-04T14:11:23;7.53;;;4.28;;
17886;SDS011;9069;52.044;7.472;2023-12-04T14:13:50;7.80;;;4.97;;
17886;SDS011;9069;52.044;7.472;2023-12-04T14:16:17;7.38;;;4.72;;
17886;SDS011;9069;52.044;7.472;2023-12-04T14:18:44;10.07;;;5.17;;
17886;SDS011;9069;52.044;7.472;2023-12-04T14:21:12;7.07;;;4.20;;
17886;SDS011;9069;52.044;7.472;2023-12-04T14:23:38;8.97;;;4.80;;
17886;SDS011;9069;52.044;7.472;2023-12-04T14:26:05;9.93;;;5.40;;
17886;SDS011;9069;52.044;7.472;2023-12-04T14:28:32;12.25;;;5.80;;
17886;SDS011;9069;52.044;7.472;2023-12-04T14:31:08;11.43;;;5.90;;
17886;SDS011;9069;52.044;7.472;2023-12-04T14:33:36;11.07;;;5.55;;
17886;SDS011;9069;52.044;7.472;2023-12-04T14:36:08;9.93;;;5.38;;
17886;SDS011;9069;52.044;7.472;2023-12-04T14:38:36;10.65;;;5.80;;
17886;SDS011;9069;52.044;7.472;2023-12-04T14:41:04;8.82;;;4.82;;
17886;SDS011;9069;52.044;7.472;2023-12-04T14:43:32;9.32;;;4.82;;
17886;SDS011;9069;52.044;7.472;2023-12-04T14:46:00;9.15;;;5.30;;
17886;SDS011;9069;52.044;7.472;2023-12-04T14:48:30;8.48;;;4.97;;
17886;SDS011;9069;52.044;7.472;2023-12-04T14:50:57;9.27;;;5.40;;
17886;SDS011;9069;52.044;7.472;2023-12-04T14:53:29;7.50;;;4.60;;
17886;SDS011;9069;52.044;7.472;2023-12-04T14:56:15;13.77;;;6.00;;
17886;SDS011;9069;52.044;7.472;2023-12-04T14:58:54;11.10;;;6.33;;
17886;SDS011;9069;52.044;7.472;2023-12-04T15:01:40;11.15;;;5.25;;
17886;SDS011;9069;52.044;7.472;2023-12-04T15:04:26;9.30;;;5.40;;
17886;SDS011;9069;52.044;7.472;2023-12-04T15:07:08;11.57;;;5.93;;